Time;durP1;ratioP1;P1;durP2;ratioP2;P2;SDS_P1;SDS_P2;PMS_P1;PMS_P2;Temp;Humidity;BMP_temperature;BMP_pressure;BME280_temperature;BME280_humidity;BME280_pressure;Samples;Min_cycle;Max_cycle;Signal;HPM_P1;HPM_P2
2023/05/14 00:01:35;;;;;;;25.63;16.70;;;12.20;99.90;;;;;;5014008;28;20199;-81
2023/05/14 00:04:02;;;;;;;23.23;16.53;;;12.10;99.90;;;;;;5013964;28;20235;-82
2023/05/14 00:06:28;;;;;;;23.43;16.67;;;12.10;99.90;;;;;;5015211;28;20309;-80
2023/05/14 00:08:57;;;;;;;19.10;15.50;;;12.10;99.90;;;;;;5014287;28;20203;-82
2023/05/14 00:11:24;;;;;;;21.77;16.53;;;12.10;99.90;;;;;;5025661;28;20216;-80
2023/05/14 00:13:51;;;;;;;22.17;16.87;;;12.00;99.90;;;;;;5034007;28;20222;-81
2023/05/14 00:16:18;;;;;;;26.07;17.33;;;12.00;99.90;;;;;;5018084;28;20203;-81
2023/05/14 00:18:45;;;;;;;22.30;17.00;;;12.00;99.90;;;;;;5014797;28;20230;-82
2023/05/14 00:21:11;;;;;;;22.50;17.27;;;11.90;99.90;;;;;;5014397;28;20211;-82
2023/05/14 00:23:38;;;;;;;21.73;16.17;;;11.90;99.90;;;;;;5013962;28;20294;-81
2023/05/14 00:26:06;;;;;;;24.03;16.87;;;11.90;99.90;;;;;;5014480;28;20207;-80
2023/05/14 00:28:33;;;;;;;21.37;16.30;;;11.90;99.90;;;;;;5016708;28;20278;-81
2023/05/14 00:31:00;;;;;;;21.03;14.87;;;11.90;99.90;;;;;;5018069;28;20289;-79
2023/05/14 00:33:27;;;;;;;21.00;14.20;;;11.90;99.90;;;;;;5017541;28;20310;-83
2023/05/14 00:35:54;;;;;;;24.77;15.63;;;11.90;99.90;;;;;;5017545;28;20211;-81
2023/05/14 00:38:22;;;;;;;23.97;15.53;;;11.90;99.90;;;;;;5017798;28;20227;-82
2023/05/14 00:40:50;;;;;;;22.57;15.90;;;11.80;99.90;;;;;;5018415;28;20257;-78
2023/05/14 00:43:19;;;;;;;18.37;14.40;;;11.80;99.90;;;;;;5018259;28;20211;-82
2023/05/14 00:45:47;;;;;;;18.33;13.73;;;11.80;99.90;;;;;;5017969;28;20199;-84
2023/05/14 00:48:14;;;;;;;20.03;13.80;;;11.80;99.90;;;;;;5017864;28;20203;-82
2023/05/14 00:50:41;;;;;;;17.80;13.83;;;11.80;99.90;;;;;;5017297;28;20214;-82
2023/05/14 00:53:09;;;;;;;23.73;13.97;;;11.70;99.90;;;;;;5018113;28;20196;-83
2023/05/14 00:55:37;;;;;;;20.17;13.90;;;11.80;99.90;;;;;;5017784;28;20699;-83
2023/05/14 00:58:07;;;;;;;21.40;13.17;;;11.70;99.90;;;;;;5017227;28;20219;-81
2023/05/14 01:00:35;;;;;;;15.30;12.67;;;11.70;99.90;;;;;;5017642;28;20206;-79
2023/05/14 01:03:02;;;;;;;19.33;13.63;;;11.70;99.90;;;;;;5017134;28;20211;-81
2023/05/14 01:05:36;;;;;;;22.13;13.70;;;11.60;99.90;;;;;;5017593;28;20191;-81
2023/05/14 01:08:09;;;;;;;20.77;13.77;;;11.60;99.90;;;;;;5017799;28;20203;-81
2023/05/14 01:10:43;;;;;;;19.20;13.50;;;11.60;99.90;;;;;;5017316;28;20218;-82
2023/05/14 01:13:19;;;;;;;18.20;13.47;;;11.60;99.90;;;;;;5017902;28;20234;-82
2023/05/14 01:15:49;;;;;;;22.87;14.40;;;11.60;99.90;;;;;;5034968;28;20206;-81
2023/05/14 01:18:19;;;;;;;17.07;12.97;;;11.50;99.90;;;;;;5035948;28;20290;-82
2023/05/14 01:20:46;;;;;;;19.50;13.13;;;11.50;99.90;;;;;;5037410;28;20281;-82
2023/05/14 01:23:14;;;;;;;18.37;13.70;;;11.50;99.90;;;;;;5034996;28;20747;-82
2023/05/14 01:25:41;;;;;;;18.73;13.83;;;11.50;99.90;;;;;;5017022;28;20202;-81
2023/05/14 01:28:17;;;;;;;16.00;13.67;;;11.50;99.90;;;;;;5017297;28;20206;-81
2023/05/14 01:30:48;;;;;;;17.43;12.87;;;11.40;99.90;;;;;;5017769;28;20215;-82
2023/05/14 01:33:18;;;;;;;17.13;13.50;;;11.40;99.90;;;;;;5016666;28;20200;-82
2023/05/14 01:35:45;;;;;;;18.17;14.70;;;11.40;99.90;;;;;;5017144;28;20307;-82
2023/05/14 01:38:17;;;;;;;21.93;14.43;;;11.30;99.90;;;;;;5016537;28;20286;-82
2023/05/14 01:40:46;;;;;;;17.90;13.03;;;11.30;99.90;;;;;;5016752;28;20188;-82
2023/05/14 01:43:13;;;;;;;21.23;14.87;;;11.30;99.90;;;;;;5016905;28;20201;-82
2023/05/14 01:45:40;;;;;;;17.00;14.30;;;11.30;99.90;;;;;;5016404;28;20291;-81
2023/05/14 01:48:07;;;;;;;18.00;14.57;;;11.30;99.90;;;;;;5016653;28;20219;-81
2023/05/14 01:50:34;;;;;;;18.10;13.83;;;11.30;99.90;;;;;;5020186;28;20195;-81
2023/05/14 01:53:01;;;;;;;15.07;12.40;;;11.20;99.90;;;;;;5035658;28;21029;-81
2023/05/14 01:55:29;;;;;;;14.43;12.93;;;11.20;99.90;;;;;;5036133;28;20219;-81
2023/05/14 01:57:56;;;;;;;17.17;13.57;;;11.20;99.90;;;;;;5021632;28;20310;-82
2023/05/14 02:00:24;;;;;;;17.67;12.87;;;11.20;99.90;;;;;;5016148;28;20199;-79
2023/05/14 02:02:51;;;;;;;14.67;13.03;;;11.20;99.90;;;;;;5016587;28;20253;-80
2023/05/14 02:05:18;;;;;;;15.37;12.43;;;11.20;99.90;;;;;;5016265;28;20545;-82
2023/05/14 02:07:45;;;;;;;19.47;13.23;;;11.10;99.90;;;;;;5015734;28;20647;-82
2023/05/14 02:10:12;;;;;;;17.40;13.67;;;11.00;99.90;;;;;;5016557;28;20287;-82
2023/05/14 02:12:40;;;;;;;17.13;13.17;;;11.00;99.90;;;;;;5016118;28;20200;-81
2023/05/14 02:15:09;;;;;;;17.37;14.43;;;10.90;99.90;;;;;;5015996;28;20223;-81
2023/05/14 02:17:36;;;;;;;17.33;14.70;;;10.90;99.90;;;;;;5020928;28;20207;-81
2023/05/14 02:20:04;;;;;;;21.67;14.60;;;10.90;99.90;;;;;;5036118;28;20226;-81
2023/05/14 02:22:31;;;;;;;25.70;15.70;;;10.90;99.90;;;;;;5035566;28;20750;-81
2023/05/14 02:24:57;;;;;;;22.47;16.47;;;10.90;99.90;;;;;;5035960;28;20615;-82
2023/05/14 02:27:24;;;;;;;31.13;20.10;;;10.90;99.90;;;;;;5035422;28;20247;-81
2023/05/14 02:29:53;;;;;;;31.07;21.00;;;11.00;99.90;;;;;;5035526;28;20280;-81
2023/05/14 02:32:20;;;;;;;31.50;20.03;;;11.00;99.90;;;;;;5036015;28;20502;-81
2023/05/14 02:34:46;;;;;;;29.37;20.60;;;10.90;99.90;;;;;;5034366;28;20222;-81
2023/05/14 02:37:13;;;;;;;36.13;23.33;;;10.90;99.90;;;;;;5035330;28;20202;-82
2023/05/14 02:39:40;;;;;;;33.67;22.87;;;11.00;99.90;;;;;;5035733;28;20682;-82
2023/05/14 02:42:07;;;;;;;34.13;21.63;;;10.90;99.90;;;;;;5033553;28;20195;-82
2023/05/14 02:44:34;;;;;;;33.00;22.37;;;11.00;99.90;;;;;;5016013;28;20596;-81
2023/05/14 02:47:02;;;;;;;34.30;23.20;;;11.00;99.90;;;;;;5015858;28;20204;-82
2023/05/14 02:49:29;;;;;;;30.50;22.40;;;11.00;99.90;;;;;;5015390;28;20210;-80
2023/05/14 02:51:56;;;;;;;34.00;23.87;;;11.00;99.90;;;;;;5015263;28;20293;-79
2023/05/14 02:54:23;;;;;;;36.07;22.80;;;11.00;99.90;;;;;;5015568;28;20222;-80
2023/05/14 02:56:50;;;;;;;34.33;23.50;;;10.90;99.90;;;;;;5015459;28;20222;-79
2023/05/14 02:59:17;;;;;;;36.53;24.63;;;11.00;99.90;;;;;;5015638;28;20203;-79
2023/05/14 03:01:44;;;;;;;37.73;25.07;;;11.00;99.90;;;;;;5015129;28;20289;-80
2023/05/14 03:04:12;;;;;;;37.87;24.53;;;11.00;99.90;;;;;;5031898;28;20227;-76
2023/05/14 03:06:39;;;;;;;41.20;26.70;;;11.00;99.90;;;;;;5035021;28;20709;-82
2023/05/14 03:09:06;;;;;;;38.97;25.87;;;11.00;99.90;;;;;;5016875;28;20222;-81
2023/05/14 03:11:33;;;;;;;37.80;26.20;;;11.00;99.90;;;;;;5014611;28;20738;-80
2023/05/14 03:14:00;;;;;;;40.67;26.53;;;11.00;99.90;;;;;;5018999;28;20497;-79
2023/05/14 03:16:27;;;;;;;41.03;25.90;;;11.10;99.90;;;;;;5034432;28;20582;-82
2023/05/14 03:18:54;;;;;;;45.83;28.40;;;11.10;99.90;;;;;;5034311;28;20203;-78
2023/05/14 03:21:22;;;;;;;41.07;28.00;;;11.10;99.90;;;;;;5033833;28;20282;-78
2023/05/14 03:23:49;;;;;;;38.70;26.93;;;11.10;99.90;;;;;;5034341;28;20289;-78
2023/05/14 03:26:16;;;;;;;41.97;27.90;;;11.20;99.90;;;;;;5033884;28;20230;-78
2023/05/14 03:28:44;;;;;;;38.50;28.23;;;11.20;99.90;;;;;;5032677;28;20603;-81
2023/05/14 03:31:11;;;;;;;42.33;27.83;;;11.20;99.90;;;;;;5033595;28;20199;-79
2023/05/14 03:33:38;;;;;;;40.33;28.60;;;11.30;99.90;;;;;;5018062;28;20536;-80
2023/05/14 03:36:05;;;;;;;44.33;30.30;;;11.30;99.90;;;;;;5014748;28;20222;-79
2023/05/14 03:38:33;;;;;;;44.70;31.10;;;11.30;99.90;;;;;;5013943;28;20191;-81
2023/05/14 03:41:00;;;;;;;39.87;29.07;;;11.30;99.90;;;;;;5023963;28;20246;-81
2023/05/14 03:43:27;;;;;;;37.77;26.37;;;11.30;99.90;;;;;;5033793;28;20201;-78
2023/05/14 03:45:54;;;;;;;42.00;28.37;;;11.20;99.90;;;;;;5033773;28;20187;-80
2023/05/14 03:48:21;;;;;;;47.20;31.33;;;11.20;99.90;;;;;;5027006;28;20260;-78
2023/05/14 03:50:48;;;;;;;40.27;27.93;;;11.30;99.90;;;;;;5014181;28;20275;-78
2023/05/14 03:53:15;;;;;;;43.03;29.20;;;11.30;99.90;;;;;;5013207;28;20612;-80
2023/05/14 03:55:43;;;;;;;48.03;31.43;;;11.30;99.90;;;;;;5014125;28;20231;-78
2023/05/14 03:58:12;;;;;;;50.40;32.70;;;11.30;99.90;;;;;;5023746;28;20237;-79
2023/05/14 04:00:40;;;;;;;41.80;29.50;;;11.40;99.90;;;;;;5033087;28;20638;-76
2023/05/14 04:03:07;;;;;;;46.73;30.93;;;11.30;99.90;;;;;;5033541;28;20285;-77
2023/05/14 04:05:34;;;;;;;47.97;31.90;;;11.30;99.90;;;;;;5020273;28;20203;-79
2023/05/14 04:08:01;;;;;;;44.37;31.37;;;11.30;99.90;;;;;;5013312;28;20203;-79
2023/05/14 04:10:28;;;;;;;44.63;30.73;;;11.40;99.90;;;;;;5013186;28;20195;-78
2023/05/14 04:12:56;;;;;;;42.93;28.97;;;11.40;99.90;;;;;;5014070;28;20199;-78
2023/05/14 04:15:23;;;;;;;49.30;31.07;;;11.50;99.90;;;;;;5012882;28;20318;-79
2023/05/14 04:17:50;;;;;;;46.13;30.83;;;11.50;99.90;;;;;;5013690;28;20626;-80
2023/05/14 04:20:18;;;;;;;38.70;28.10;;;11.50;99.90;;;;;;5014300;28;20249;-78
2023/05/14 04:22:45;;;;;;;38.67;28.10;;;11.50;99.90;;;;;;5013210;28;20307;-81
2023/05/14 04:25:12;;;;;;;37.37;27.43;;;11.50;99.90;;;;;;5013848;28;20285;-83
2023/05/14 04:27:39;;;;;;;37.30;27.23;;;11.50;99.90;;;;;;5032739;28;20214;-79
2023/05/14 04:30:10;;;;;;;38.97;29.30;;;11.60;99.90;;;;;;5017973;28;20559;-79
2023/05/14 04:32:36;;;;;;;36.53;25.33;;;11.60;99.90;;;;;;5019096;28;20694;-78
2023/05/14 04:35:04;;;;;;;42.63;29.10;;;11.50;99.90;;;;;;5020521;28;20530;-77
2023/05/14 04:37:31;;;;;;;37.50;28.60;;;11.50;99.90;;;;;;5016016;28;20198;-82
2023/05/14 04:39:58;;;;;;;38.47;25.87;;;11.50;99.90;;;;;;5020877;28;20198;-81
2023/05/14 04:42:25;;;;;;;34.60;26.00;;;11.50;99.90;;;;;;5014707;28;20207;-80
2023/05/14 04:44:52;;;;;;;37.77;26.30;;;11.50;99.90;;;;;;5013846;28;20191;-80
2023/05/14 04:47:21;;;;;;;38.13;25.53;;;11.60;99.90;;;;;;5013857;28;20662;-79
2023/05/14 04:49:47;;;;;;;37.83;25.17;;;11.60;99.90;;;;;;5018222;28;20648;-77
2023/05/14 04:52:14;;;;;;;35.07;25.63;;;11.60;99.90;;;;;;5033019;28;20206;-80
2023/05/14 04:54:41;;;;;;;30.90;24.40;;;11.60;99.90;;;;;;5032971;28;20227;-79
2023/05/14 04:57:08;;;;;;;40.43;26.97;;;11.60;99.90;;;;;;5032893;28;20300;-77
2023/05/14 04:59:35;;;;;;;37.73;26.00;;;11.50;99.90;;;;;;5021311;28;20237;-78
2023/05/14 05:02:02;;;;;;;35.37;25.40;;;11.50;99.90;;;;;;5013423;28;20206;-79
2023/05/14 05:04:30;;;;;;;38.97;25.67;;;11.60;99.90;;;;;;5012761;28;20241;-82
2023/05/14 05:06:57;;;;;;;34.80;24.43;;;11.60;99.90;;;;;;5013224;28;20243;-77
2023/05/14 05:09:24;;;;;;;37.87;23.73;;;11.60;99.90;;;;;;5013535;28;20203;-79
2023/05/14 05:11:51;;;;;;;33.03;23.77;;;11.60;99.90;;;;;;5013218;28;20555;-77
2023/05/14 05:14:18;;;;;;;35.50;23.63;;;11.70;99.90;;;;;;5015675;28;20207;-80
2023/05/14 05:16:44;;;;;;;36.33;23.80;;;11.70;99.90;;;;;;5016371;28;20398;-80
2023/05/14 05:19:11;;;;;;;31.87;23.73;;;11.70;99.90;;;;;;5017139;28;20195;-77
2023/05/14 05:21:40;;;;;;;29.73;20.43;;;11.70;99.90;;;;;;5016435;28;20253;-82
2023/05/14 05:24:07;;;;;;;32.27;21.20;;;11.70;99.90;;;;;;5023450;28;20198;-80
2023/05/14 05:26:35;;;;;;;34.13;21.90;;;11.80;99.90;;;;;;5036406;28;20209;-77
2023/05/14 05:29:02;;;;;;;33.53;21.53;;;11.90;99.90;;;;;;5035391;28;20203;-81
2023/05/14 05:31:29;;;;;;;36.03;20.53;;;11.90;99.90;;;;;;5035894;28;20201;-81
2023/05/14 05:33:57;;;;;;;34.50;20.70;;;11.90;99.90;;;;;;5018759;28;20200;-81
2023/05/14 05:36:24;;;;;;;34.13;21.63;;;12.00;99.90;;;;;;5016763;28;20879;-78
2023/05/14 05:38:52;;;;;;;32.33;21.13;;;12.10;99.90;;;;;;5015868;28;20596;-78
2023/05/14 05:41:19;;;;;;;36.30;21.23;;;12.20;99.90;;;;;;5016295;28;20199;-80
2023/05/14 05:43:46;;;;;;;27.17;20.50;;;12.20;99.90;;;;;;5016317;28;20192;-79
2023/05/14 05:46:13;;;;;;;26.83;19.60;;;12.20;99.90;;;;;;5015797;28;20203;-80
2023/05/14 05:48:39;;;;;;;27.13;19.10;;;12.30;99.90;;;;;;5016379;28;20195;-80
2023/05/14 05:51:06;;;;;;;27.90;19.63;;;12.30;99.90;;;;;;5016064;28;20203;-82
2023/05/14 05:53:33;;;;;;;28.77;17.53;;;12.40;99.90;;;;;;5022966;28;20203;-81
2023/05/14 05:56:01;;;;;;;28.00;18.67;;;12.40;99.90;;;;;;5036096;28;20218;-77
2023/05/14 05:58:29;;;;;;;29.10;17.90;;;12.40;99.90;;;;;;5029717;28;20259;-80
2023/05/14 06:00:57;;;;;;;26.73;17.97;;;12.50;99.90;;;;;;5016033;28;20217;-79
2023/05/14 06:03:24;;;;;;;33.73;17.60;;;12.50;99.90;;;;;;5028766;28;20245;-78
2023/05/14 06:05:51;;;;;;;23.00;15.63;;;12.50;99.90;;;;;;5036258;28;20237;-80
2023/05/14 06:08:18;;;;;;;25.03;15.67;;;12.50;99.90;;;;;;5026211;28;20257;-80
2023/05/14 06:10:45;;;;;;;32.43;16.40;;;12.50;99.90;;;;;;5015795;28;20671;-81
2023/05/14 06:13:14;;;;;;;30.47;17.47;;;12.60;99.90;;;;;;5015866;28;20200;-81
2023/05/14 06:15:40;;;;;;;25.03;15.07;;;12.60;99.90;;;;;;5016029;28;20714;-77
2023/05/14 06:18:07;;;;;;;29.33;17.17;;;12.60;99.90;;;;;;5015989;28;20192;-79
2023/05/14 06:20:34;;;;;;;25.00;16.53;;;12.70;99.90;;;;;;5015199;28;20199;-80
2023/05/14 06:23:01;;;;;;;25.50;17.53;;;12.70;99.90;;;;;;5032286;28;20563;-82
2023/05/14 06:25:28;;;;;;;31.77;18.00;;;12.70;99.90;;;;;;5033843;28;20277;-81
2023/05/14 06:27:55;;;;;;;25.50;17.43;;;12.70;99.90;;;;;;5034369;28;20199;-81
2023/05/14 06:30:23;;;;;;;33.07;18.47;;;12.70;99.90;;;;;;5021912;28;20234;-82
2023/05/14 06:32:50;;;;;;;23.37;17.73;;;12.80;99.90;;;;;;5014856;28;20231;-79
2023/05/14 06:35:17;;;;;;;26.13;17.77;;;12.80;99.90;;;;;;5034218;28;20210;-81
2023/05/14 06:37:44;;;;;;;28.07;18.53;;;12.80;99.90;;;;;;5034807;28;20657;-80
2023/05/14 06:40:14;;;;;;;29.23;18.57;;;12.80;99.90;;;;;;5035055;28;20599;-78
2023/05/14 06:42:41;;;;;;;31.47;20.63;;;12.90;99.90;;;;;;5033640;28;20289;-77
2023/05/14 06:45:08;;;;;;;25.90;19.27;;;12.90;99.90;;;;;;5025231;28;20215;-81
2023/05/14 06:47:36;;;;;;;29.37;18.50;;;13.00;99.90;;;;;;5015222;28;20207;-77
2023/05/14 06:50:04;;;;;;;24.40;17.73;;;13.00;99.90;;;;;;5014400;28;20289;-81
2023/05/14 06:52:31;;;;;;;25.63;18.00;;;13.10;99.90;;;;;;5014577;28;20234;-83
2023/05/14 06:54:58;;;;;;;27.60;18.20;;;13.20;99.90;;;;;;5016969;28;20502;-81
2023/05/14 06:57:25;;;;;;;23.67;18.67;;;13.30;99.90;;;;;;5014347;28;20588;-78
2023/05/14 06:59:52;;;;;;;22.67;17.33;;;13.30;99.90;;;;;;5015055;28;20261;-79
2023/05/14 07:02:19;;;;;;;27.43;17.07;;;13.30;99.90;;;;;;5023730;28;20203;-81
2023/05/14 07:04:47;;;;;;;27.47;16.50;;;13.30;99.90;;;;;;5034885;28;20234;-81
2023/05/14 07:07:19;;;;;;;26.07;16.63;;;13.40;99.90;;;;;;5035019;28;20285;-81
2023/05/14 07:09:46;;;;;;;18.90;15.73;;;13.50;99.90;;;;;;5034586;28;20194;-81
2023/05/14 07:12:13;;;;;;;29.40;16.37;;;13.50;99.90;;;;;;5017086;28;20221;-83
2023/05/14 07:14:39;;;;;;;22.30;15.13;;;13.50;99.90;;;;;;5014762;28;20554;-80
2023/05/14 07:17:06;;;;;;;23.25;15.82;;;13.60;99.90;;;;;;5014146;28;20289;-79
2023/05/14 07:19:33;;;;;;;18.90;13.40;;;13.70;99.90;;;;;;5014488;28;20218;-80
2023/05/14 07:22:01;;;;;;;22.27;14.70;;;13.70;99.90;;;;;;5014502;28;20191;-82
2023/05/14 07:24:28;;;;;;;24.38;14.57;;;14.00;99.90;;;;;;5014089;28;20294;-82
2023/05/14 07:26:56;;;;;;;19.95;12.27;;;14.20;99.90;;;;;;5014501;28;20282;-79
2023/05/14 07:29:23;;;;;;;23.40;13.05;;;14.30;99.90;;;;;;5014457;28;20671;-79
2023/05/14 07:31:50;;;;;;;17.13;11.98;;;14.60;99.90;;;;;;5014935;28;20203;-80
2023/05/14 07:34:18;;;;;;;17.95;12.30;;;14.90;99.90;;;;;;5034361;28;20264;-83
2023/05/14 07:36:44;;;;;;;18.52;10.32;;;15.30;99.90;;;;;;5033535;28;20618;-79
2023/05/14 07:39:13;;;;;;;14.23;10.20;;;15.40;99.90;;;;;;5034157;28;20258;-76
2023/05/14 07:41:40;;;;;;;15.63;10.70;;;15.50;99.90;;;;;;5033479;28;20296;-78
2023/05/14 07:44:06;;;;;;;15.35;11.05;;;15.60;99.90;;;;;;5034350;28;20664;-81
2023/05/14 07:46:33;;;;;;;15.27;10.10;;;15.90;99.90;;;;;;5034067;28;20186;-80
2023/05/14 07:49:00;;;;;;;12.20;8.55;;;16.00;99.90;;;;;;5033503;28;20230;-79
2023/05/14 07:51:28;;;;;;;17.10;9.32;;;16.10;99.90;;;;;;5033841;28;20203;-81
2023/05/14 07:53:55;;;;;;;16.27;8.68;;;16.30;99.90;;;;;;5034239;28;20213;-80
2023/05/14 07:56:23;;;;;;;14.70;8.05;;;16.50;99.90;;;;;;5031726;28;20222;-79
2023/05/14 07:58:50;;;;;;;12.48;7.22;;;16.80;99.90;;;;;;5013809;28;20223;-80
2023/05/14 08:01:17;;;;;;;12.98;8.07;;;16.70;99.90;;;;;;5014135;28;20288;-81
2023/05/14 08:03:44;;;;;;;10.38;6.72;;;17.00;99.90;;;;;;5014288;28;20235;-79
2023/05/14 08:06:11;;;;;;;10.82;6.40;;;17.20;99.90;;;;;;5018397;28;20611;-76
2023/05/14 08:08:38;;;;;;;11.23;6.53;;;17.40;99.90;;;;;;5033641;28;20552;-82
2023/05/14 08:11:05;;;;;;;15.05;7.57;;;17.60;99.90;;;;;;5028503;28;20289;-82
2023/05/14 08:13:33;;;;;;;12.40;7.65;;;17.70;99.90;;;;;;5013353;28;20603;-79
2023/05/14 08:16:00;;;;;;;12.52;6.68;;;17.70;99.90;;;;;;5014330;28;20230;-78
2023/05/14 08:18:27;;;;;;;9.35;6.35;;;17.80;99.90;;;;;;5013977;28;20293;-79
2023/05/14 08:20:54;;;;;;;11.00;6.63;;;17.90;99.90;;;;;;5013155;28;20494;-77
2023/05/14 08:23:21;;;;;;;8.15;5.97;;;18.00;99.90;;;;;;5020855;28;20202;-79
2023/05/14 08:25:48;;;;;;;11.75;6.18;;;18.30;99.90;;;;;;5033666;28;20206;-78
2023/05/14 08:28:15;;;;;;;15.13;6.90;;;18.60;99.90;;;;;;5033327;28;20286;-80
2023/05/14 08:30:43;;;;;;;10.85;6.40;;;18.40;99.90;;;;;;5033474;28;20194;-79
2023/05/14 08:33:10;;;;;;;10.63;6.55;;;18.30;99.90;;;;;;5018487;28;20229;-80
2023/05/14 08:35:37;;;;;;;12.63;7.20;;;18.20;99.90;;;;;;5013455;28;20195;-81
2023/05/14 08:38:03;;;;;;;11.15;6.50;;;18.10;99.90;;;;;;5013818;28;20219;-81
2023/05/14 08:40:30;;;;;;;8.90;6.05;;;18.10;99.90;;;;;;5023519;28;20289;-78
2023/05/14 08:42:58;;;;;;;9.75;6.25;;;18.40;99.90;;;;;;5033199;28;20224;-80
2023/05/14 08:45:32;;;;;;;10.40;6.10;;;18.70;99.90;;;;;;5033212;28;20278;-82
2023/05/14 08:48:04;;;;;;;11.00;6.68;;;19.10;99.90;;;;;;5024137;28;20199;-80
2023/05/14 08:50:31;;;;;;;12.75;6.28;;;19.20;99.90;;;;;;5017555;28;20250;-80
2023/05/14 08:52:58;;;;;;;9.82;5.90;;;19.60;99.90;;;;;;5016992;28;20257;-79
2023/05/14 08:55:28;;;;;;;8.70;5.93;;;19.90;99.90;;;;;;5016246;28;20227;-80
2023/05/14 08:57:55;;;;;;;9.95;6.05;;;20.20;99.90;;;;;;5016790;28;20231;-78
2023/05/14 09:00:22;;;;;;;7.13;5.50;;;20.50;99.90;;;;;;5017109;28;20257;-80
2023/05/14 09:02:49;;;;;;;11.93;5.88;;;20.50;99.90;;;;;;5016943;28;20195;-76
2023/05/14 09:05:19;;;;;;;6.05;5.00;;;20.40;99.90;;;;;;5019967;28;20234;-77
2023/05/14 09:07:46;;;;;;;9.82;6.35;;;20.40;99.90;;;;;;5036886;28;20195;-82
2023/05/14 09:10:14;;;;;;;11.85;5.85;;;20.30;99.90;;;;;;5034875;28;20643;-80
2023/05/14 09:12:41;;;;;;;7.45;4.85;;;20.20;99.90;;;;;;5036581;28;20210;-80
2023/05/14 09:15:08;;;;;;;5.85;4.70;;;20.20;99.90;;;;;;5027858;28;20218;-80
2023/05/14 09:17:35;;;;;;;12.63;5.18;;;20.20;99.90;;;;;;5016823;28;20521;-81
2023/05/14 09:20:03;;;;;;;7.32;3.90;;;20.30;99.90;;;;;;5016578;28;20214;-78
2023/05/14 09:22:32;;;;;;;11.82;5.60;;;20.60;99.90;;;;;;5016506;28;20211;-79
2023/05/14 09:25:04;;;;;;;11.05;4.78;;;20.70;99.90;;;;;;5016383;28;20295;-76
2023/05/14 09:27:32;;;;;;;8.35;3.80;;;20.50;99.90;;;;;;5016572;28;20235;-78
2023/05/14 09:30:06;;;;;;;7.88;3.55;;;20.40;99.90;;;;;;5016118;28;20196;-80
2023/05/14 09:32:37;;;;;;;10.80;4.53;;;20.70;99.90;;;;;;5016819;28;20202;-79
2023/05/14 09:35:16;;;;;;;7.82;4.20;;;20.60;99.90;;;;;;5016218;28;20206;-76
2023/05/14 09:37:46;;;;;;;11.02;4.28;;;20.60;99.90;;;;;;5016524;28;20317;-79
2023/05/14 09:40:14;;;;;;;8.95;4.07;;;20.90;99.90;;;;;;5036212;28;20198;-79
2023/05/14 09:42:41;;;;;;;7.55;3.92;;;21.20;99.90;;;;;;5036288;28;20202;-80
2023/05/14 09:45:09;;;;;;;10.40;4.40;;;21.40;62.60;;;;;;5034659;28;20210;-80
2023/05/14 09:47:37;;;;;;;8.70;4.75;;;21.50;61.20;;;;;;5036106;28;20248;-81
2023/05/14 09:50:05;;;;;;;10.07;4.88;;;21.60;43.60;;;;;;5034598;28;20210;-80
2023/05/14 09:52:32;;;;;;;10.25;4.28;;;21.40;1.00;;;;;;5034328;28;20203;-81
2023/05/14 09:55:01;;;;;;;8.18;3.45;;;21.30;83.10;;;;;;5036048;28;20243;-77
2023/05/14 09:57:28;;;;;;;10.32;3.72;;;21.50;99.90;;;;;;5035289;28;20233;-79
2023/05/14 09:59:55;;;;;;;13.98;4.05;;;21.60;99.90;;;;;;5034535;28;20297;-78
2023/05/14 10:02:24;;;;;;;9.68;3.88;;;21.50;99.90;;;;;;5035638;28;20198;-82
2023/05/14 10:04:52;;;;;;;8.10;3.75;;;21.60;99.90;;;;;;5035070;28;20321;-77
2023/05/14 10:07:22;;;;;;;15.52;3.83;;;21.70;99.90;;;;;;5028421;28;20858;-81
2023/05/14 10:09:54;;;;;;;14.70;3.60;;;21.80;99.90;;;;;;5015756;28;20184;-80
2023/05/14 10:12:23;;;;;;;8.32;3.33;;;21.80;99.90;;;;;;5032682;28;20666;-80
2023/05/14 10:14:53;;;;;;;10.10;3.42;;;21.70;99.90;;;;;;5035038;28;20290;-77
2023/05/14 10:17:22;;;;;;;12.65;3.75;;;21.60;99.90;;;;;;5035268;28;20222;-79
2023/05/14 10:19:53;;;;;;;7.13;3.35;;;21.50;99.90;;;;;;5033685;28;20290;-77
2023/05/14 10:22:23;;;;;;;14.93;3.38;;;21.60;99.90;;;;;;5035018;28;20591;-77
2023/05/14 10:24:52;;;;;;;8.25;3.05;;;21.50;81.40;;;;;;5035375;28;20202;-82
2023/05/14 10:27:21;;;;;;;12.70;3.08;;;21.40;99.90;;;;;;5034403;28;20199;-80
2023/05/14 10:29:56;;;;;;;10.43;3.80;;;21.30;99.90;;;;;;5018144;28;20631;-80
2023/05/14 10:32:24;;;;;;;5.57;3.00;;;21.10;99.90;;;;;;5014970;28;20199;-78
2023/05/14 10:34:52;;;;;;;10.93;3.13;;;21.10;99.90;;;;;;5014410;28;20199;-79
2023/05/14 10:37:21;;;;;;;11.55;3.63;;;21.30;99.90;;;;;;5014456;28;20322;-81
2023/05/14 10:39:50;;;;;;;9.38;3.38;;;21.40;99.90;;;;;;5015185;28;20223;-78
2023/05/14 10:42:19;;;;;;;7.60;2.67;;;21.60;99.90;;;;;;5014781;28;20274;-79
2023/05/14 10:44:54;;;;;;;10.70;3.30;;;21.70;99.90;;;;;;5015192;28;20187;-80
2023/05/14 10:47:22;;;;;;;12.23;3.13;;;21.60;99.90;;;;;;5014526;28;20583;-83
2023/05/14 10:49:49;;;;;;;12.13;3.38;;;21.90;99.90;;;;;;5014926;28;20226;-79
2023/05/14 10:52:19;;;;;;;6.38;2.88;;;22.10;99.90;;;;;;5014905;28;20520;-79
2023/05/14 10:54:51;;;;;;;12.35;4.05;;;22.30;99.90;;;;;;5029589;28;20493;-79
2023/05/14 10:57:19;;;;;;;6.30;3.05;;;22.50;75.60;;;;;;5034557;28;20234;-79
2023/05/14 10:59:47;;;;;;;7.72;2.70;;;22.40;47.70;;;;;;5021448;23;20238;-81
2023/05/14 11:02:24;;;;;;;9.02;2.85;;;22.40;64.60;;;;;;4994554;28;20207;-79
2023/05/14 11:05:01;;;;;;;7.60;3.35;;;22.50;88.60;;;;;;4994854;28;20696;-81
2023/05/14 11:07:31;;;;;;;10.45;2.85;;;22.60;62.10;;;;;;4988256;28;20208;-80
2023/05/14 11:10:03;;;;;;;10.57;3.38;;;22.90;90.00;;;;;;4974957;28;20201;-79
2023/05/14 11:12:31;;;;;;;11.63;3.58;;;23.00;1.00;;;;;;4975142;28;20569;-79
2023/05/14 11:15:00;;;;;;;7.78;2.83;;;23.00;1.00;;;;;;4975382;28;20295;-77
2023/05/14 11:17:30;;;;;;;10.98;2.70;;;22.90;2.20;;;;;;4981576;28;20278;-79
2023/05/14 11:19:58;;;;;;;10.05;3.35;;;22.90;9.10;;;;;;4994831;28;20215;-78
2023/05/14 11:22:25;;;;;;;12.05;3.28;;;22.90;1.00;;;;;;4994580;28;20499;-80
2023/05/14 11:24:52;;;;;;;5.38;2.53;;;22.70;1.00;;;;;;4993820;28;20214;-81
2023/05/14 11:27:21;;;;;;;9.60;2.88;;;22.70;19.40;;;;;;4994611;28;20623;-79
2023/05/14 11:29:48;;;;;;;10.55;3.50;;;22.50;10.40;;;;;;4994050;28;20224;-77
2023/05/14 11:32:16;;;;;;;6.32;3.45;;;22.30;1.00;;;;;;4994732;28;20243;-78
2023/05/14 11:34:45;;;;;;;7.95;3.38;;;22.30;39.90;;;;;;4993361;28;20208;-79
2023/05/14 11:37:13;;;;;;;8.07;3.95;;;22.30;35.20;;;;;;4992818;28;20226;-80
2023/05/14 11:39:47;;;;;;;8.40;3.40;;;22.40;45.50;;;;;;4974888;28;20215;-79
2023/05/14 11:42:16;;;;;;;6.32;3.20;;;22.40;9.60;;;;;;4974790;28;20192;-78
2023/05/14 11:44:44;;;;;;;10.70;3.55;;;22.40;1.00;;;;;;4974431;28;20291;-79
2023/05/14 11:47:11;;;;;;;9.77;3.53;;;22.20;1.00;;;;;;4988261;28;20529;-80
2023/05/14 11:49:38;;;;;;;5.25;3.53;;;22.10;14.30;;;;;;4993909;28;20640;-78
2023/05/14 11:52:09;;;;;;;7.93;3.78;;;22.10;82.70;;;;;;4983089;28;20263;-81
2023/05/14 11:54:36;;;;;;;7.40;3.70;;;22.30;34.70;;;;;;4974399;28;20216;-80
2023/05/14 11:57:08;;;;;;;8.23;4.15;;;22.40;21.90;;;;;;4974795;28;20231;-79
2023/05/14 11:59:35;;;;;;;12.32;4.10;;;22.40;1.00;;;;;;4974347;28;20542;-81
2023/05/14 12:02:03;;;;;;;10.10;4.45;;;22.40;1.00;;;;;;4986513;28;20287;-79
2023/05/14 12:04:31;;;;;;;7.63;4.68;;;22.30;1.00;;;;;;4993922;28;20532;-79
2023/05/14 12:06:59;;;;;;;8.45;4.78;;;22.40;1.00;;;;;;4991948;28;20231;-81
2023/05/14 12:09:27;;;;;;;10.05;5.03;;;22.30;1.00;;;;;;4993722;28;20491;-78
2023/05/14 12:11:54;;;;;;;12.60;5.43;;;22.20;1.00;;;;;;4993354;28;20286;-80
2023/05/14 12:14:23;;;;;;;12.30;5.65;;;22.00;67.80;;;;;;4993949;28;20219;-80
2023/05/14 12:16:51;;;;;;;9.27;5.82;;;21.70;99.90;;;;;;4977295;28;20300;-81
2023/05/14 12:19:22;;;;;;;10.05;5.93;;;21.40;99.90;;;;;;4974041;28;20263;-78
2023/05/14 12:21:51;;;;;;;10.07;5.78;;;21.30;99.90;;;;;;4974404;28;20228;-80
2023/05/14 12:24:19;;;;;;;12.38;6.55;;;21.30;99.90;;;;;;4985745;28;20208;-80
2023/05/14 12:26:49;;;;;;;9.38;6.75;;;21.10;99.90;;;;;;4997214;28;20188;-79
2023/05/14 12:29:17;;;;;;;11.82;7.13;;;21.00;99.90;;;;;;4978710;28;20245;-78
2023/05/14 12:31:48;;;;;;;9.10;7.25;;;20.90;99.90;;;;;;4978472;28;20201;-79
2023/05/14 12:34:16;;;;;;;12.02;6.93;;;21.10;99.90;;;;;;4977669;28;20274;-78
2023/05/14 12:36:43;;;;;;;10.88;6.10;;;21.30;99.90;;;;;;4978247;28;20296;-82